Time;durP1;ratioP1;P1;durP2;ratioP2;P2;SDS_P1;SDS_P2;PMS_P1;PMS_P2;Temp;Humidity;BMP_temperature;BMP_pressure;BME280_temperature;BME280_humidity;BME280_pressure;Samples;Min_cycle;Max_cycle;Signal;HPM_P1;HPM_P2
2024/04/02 00:01:55;;;;;;;2.20;0.80;;;8.20;99.90;;;;;;5071975;28;20185;-72
2024/04/02 00:04:20;;;;;;;0.80;0.60;;;8.20;99.90;;;;;;5071265;28;20448;-72
2024/04/02 00:06:46;;;;;;;1.30;1.00;;;8.20;99.90;;;;;;5071510;28;20177;-72
2024/04/02 00:09:11;;;;;;;1.20;0.80;;;8.20;99.90;;;;;;5053159;28;20267;-72
2024/04/02 00:11:37;;;;;;;0.90;0.80;;;8.20;99.90;;;;;;5071757;28;20170;-72
2024/04/02 00:14:02;;;;;;;1.07;0.70;;;8.20;99.90;;;;;;5053688;28;20232;-72
2024/04/02 00:16:28;;;;;;;2.30;0.77;;;8.10;99.90;;;;;;5053777;28;20196;-72
2024/04/02 00:18:53;;;;;;;2.80;1.13;;;8.10;99.90;;;;;;5071330;28;20669;-72
2024/04/02 00:21:20;;;;;;;0.90;0.63;;;8.10;99.90;;;;;;5071440;28;20208;-72
2024/04/02 00:23:46;;;;;;;1.47;0.70;;;8.00;99.90;;;;;;5070940;28;20165;-72
2024/04/02 00:26:11;;;;;;;2.10;0.90;;;8.00;99.90;;;;;;5071481;28;20452;-72
2024/04/02 00:28:38;;;;;;;1.30;1.10;;;7.90;99.90;;;;;;5071269;28;20174;-72
2024/04/02 00:31:06;;;;;;;2.20;0.60;;;7.90;99.90;;;;;;5071603;28;20781;-72
2024/04/02 00:33:32;;;;;;;2.10;0.80;;;7.80;99.90;;;;;;5074279;28;20456;-72
2024/04/02 00:36:05;;;;;;;1.50;0.80;;;7.80;99.90;;;;;;5075417;28;20447;-72
2024/04/02 00:38:32;;;;;;;3.47;0.97;;;7.80;99.90;;;;;;5075017;28;20410;-72
2024/04/02 00:40:58;;;;;;;1.90;1.17;;;7.80;99.90;;;;;;5075402;28;20991;-72
2024/04/02 00:43:24;;;;;;;1.37;1.27;;;7.80;99.90;;;;;;5075265;28;20483;-72
2024/04/02 00:45:50;;;;;;;1.20;0.90;;;7.80;99.90;;;;;;5075222;28;20603;-72
2024/04/02 00:48:17;;;;;;;1.53;0.87;;;7.80;99.90;;;;;;5074927;28;20445;-72
2024/04/02 00:50:43;;;;;;;1.20;0.80;;;7.80;99.90;;;;;;5075062;28;20459;-72
2024/04/02 00:53:09;;;;;;;1.30;0.87;;;7.80;99.90;;;;;;5075182;28;20408;-72
2024/04/02 00:55:37;;;;;;;1.27;0.90;;;7.80;99.90;;;;;;5075216;28;20436;-72
2024/04/02 00:58:07;;;;;;;0.80;0.70;;;7.80;99.90;;;;;;5074872;28;20432;-72
2024/04/02 01:00:35;;;;;;;2.50;1.17;;;7.90;99.90;;;;;;5074862;28;20447;-72
2024/04/02 01:03:05;;;;;;;1.03;0.73;;;7.90;99.90;;;;;;5057024;28;20790;-72
2024/04/02 01:05:32;;;;;;;2.13;1.03;;;8.00;99.90;;;;;;5056945;28;20463;-72
2024/04/02 01:08:00;;;;;;;3.00;1.30;;;8.00;99.90;;;;;;5074575;28;20393;-72
2024/04/02 01:10:26;;;;;;;1.93;0.90;;;8.10;99.90;;;;;;5056761;28;20798;-72
2024/04/02 01:12:52;;;;;;;1.27;0.87;;;8.20;99.90;;;;;;5056750;28;20400;-72
2024/04/02 01:15:21;;;;;;;1.00;0.70;;;8.20;99.90;;;;;;5074619;28;20405;-72
2024/04/02 01:17:47;;;;;;;6.83;1.23;;;8.20;99.90;;;;;;5074535;28;20503;-72
2024/04/02 01:20:12;;;;;;;7.23;0.93;;;8.30;99.90;;;;;;5074404;28;20509;-72
2024/04/02 01:22:38;;;;;;;1.30;0.80;;;8.40;99.90;;;;;;5056380;28;20955;-72
2024/04/02 01:25:07;;;;;;;1.23;1.00;;;8.40;99.90;;;;;;5074461;28;20190;-72
2024/04/02 01:27:33;;;;;;;1.40;0.90;;;8.50;99.90;;;;;;5074220;28;20249;-72
2024/04/02 01:29:58;;;;;;;1.47;1.00;;;8.50;99.90;;;;;;5074282;28;20499;-72
2024/04/02 01:32:24;;;;;;;0.80;0.60;;;8.50;99.90;;;;;;5074405;28;20535;-72
2024/04/02 01:34:49;;;;;;;2.90;0.80;;;8.50;99.90;;;;;;5074342;28;20170;-72
2024/04/02 01:37:15;;;;;;;3.40;1.00;;;8.50;99.90;;;;;;5074287;28;20162;-72
2024/04/02 01:39:41;;;;;;;1.80;1.17;;;8.60;99.90;;;;;;5074220;28;20197;-72
2024/04/02 01:42:06;;;;;;;1.00;0.90;;;8.70;99.90;;;;;;5074405;28;20217;-72
2024/04/02 01:44:32;;;;;;;2.63;1.10;;;8.70;99.90;;;;;;5073389;28;20232;-72
2024/04/02 01:46:57;;;;;;;0.80;0.70;;;8.70;99.90;;;;;;5074135;28;20162;-72
2024/04/02 01:49:23;;;;;;;3.13;1.43;;;8.70;99.90;;;;;;5073933;28;20197;-72
2024/04/02 01:51:48;;;;;;;0.90;0.70;;;8.70;99.90;;;;;;5074003;28;20163;-73
2024/04/02 01:54:14;;;;;;;8.53;1.07;;;8.70;99.90;;;;;;5073992;28;20163;-72
2024/04/02 01:56:39;;;;;;;1.00;0.73;;;8.80;99.90;;;;;;5073995;28;20222;-72
2024/04/02 01:59:05;;;;;;;1.33;1.00;;;8.80;99.90;;;;;;5073621;28;20209;-72
2024/04/02 02:01:30;;;;;;;1.20;1.10;;;8.90;99.90;;;;;;5073777;28;20261;-72
2024/04/02 02:03:56;;;;;;;2.00;0.93;;;8.80;99.90;;;;;;5073819;28;20193;-72
2024/04/02 02:06:22;;;;;;;1.70;0.90;;;8.80;99.90;;;;;;5055884;28;20227;-72
2024/04/02 02:08:49;;;;;;;2.37;1.47;;;8.80;99.90;;;;;;5073541;28;20193;-72
2024/04/02 02:11:15;;;;;;;4.33;0.90;;;8.80;99.90;;;;;;5074202;28;20249;-72
2024/04/02 02:13:40;;;;;;;1.00;0.90;;;8.70;99.90;;;;;;5073545;28;20392;-72
2024/04/02 02:16:06;;;;;;;0.90;0.80;;;8.70;99.90;;;;;;5073597;28;20664;-72
2024/04/02 02:18:32;;;;;;;2.80;1.07;;;8.60;99.90;;;;;;5073176;28;20174;-72
2024/04/02 02:20:58;;;;;;;1.10;0.80;;;8.50;99.90;;;;;;5073687;28;20227;-72
2024/04/02 02:23:25;;;;;;;3.07;0.70;;;8.50;99.90;;;;;;5073367;28;20162;-72
2024/04/02 02:25:51;;;;;;;1.23;0.73;;;8.40;99.90;;;;;;5055455;28;20456;-72
2024/04/02 02:28:17;;;;;;;0.80;0.70;;;8.40;99.90;;;;;;5055253;28;20405;-72
2024/04/02 02:30:42;;;;;;;0.80;0.70;;;8.30;99.90;;;;;;5073260;28;20478;-72
2024/04/02 02:33:08;;;;;;;1.03;0.73;;;8.30;99.90;;;;;;5073016;28;20407;-72
2024/04/02 02:35:33;;;;;;;1.10;0.80;;;8.20;99.90;;;;;;5073014;28;20561;-72
2024/04/02 02:37:59;;;;;;;1.00;0.90;;;8.20;99.90;;;;;;5072935;28;20173;-72
2024/04/02 02:40:24;;;;;;;2.13;0.90;;;8.20;99.90;;;;;;5073037;28;20190;-72
2024/04/02 02:42:50;;;;;;;3.37;1.13;;;8.10;99.90;;;;;;5055361;28;20171;-72
2024/04/02 02:45:15;;;;;;;1.73;0.90;;;8.10;99.90;;;;;;5073119;28;20553;-72
2024/04/02 02:47:41;;;;;;;2.57;0.90;;;8.10;99.90;;;;;;5072632;28;20162;-72
2024/04/02 02:50:07;;;;;;;2.93;1.20;;;8.00;99.90;;;;;;5055149;28;20197;-72
2024/04/02 02:52:32;;;;;;;1.77;1.10;;;8.00;99.90;;;;;;5055028;28;20166;-72
2024/04/02 02:54:58;;;;;;;1.50;1.37;;;8.00;99.90;;;;;;5054912;28;20177;-72
2024/04/02 02:57:23;;;;;;;1.80;1.70;;;8.00;99.90;;;;;;5071479;28;20178;-72
2024/04/02 02:59:49;;;;;;;1.30;0.80;;;8.00;99.90;;;;;;5072744;28;20205;-72
2024/04/02 03:02:14;;;;;;;2.73;0.90;;;8.00;99.90;;;;;;5072581;28;20181;-72
2024/04/02 03:04:40;;;;;;;3.23;1.30;;;8.00;99.90;;;;;;5072448;28;20264;-72
2024/04/02 03:07:06;;;;;;;1.33;1.20;;;8.00;99.90;;;;;;5054928;28;20193;-72
2024/04/02 03:09:34;;;;;;;1.37;0.93;;;8.00;99.90;;;;;;5054262;28;20186;-72
2024/04/02 03:12:00;;;;;;;2.10;0.93;;;8.00;99.90;;;;;;5072472;28;20192;-72
2024/04/02 03:14:25;;;;;;;1.73;0.70;;;8.00;99.90;;;;;;5072405;28;20405;-72
2024/04/02 03:16:52;;;;;;;2.13;1.00;;;8.00;99.90;;;;;;5054616;28;20180;-72
2024/04/02 03:19:18;;;;;;;1.10;0.90;;;8.00;99.90;;;;;;5054075;28;20198;-72
2024/04/02 03:21:43;;;;;;;1.20;0.93;;;8.10;99.90;;;;;;5054435;28;20416;-72
2024/04/02 03:24:09;;;;;;;0.90;0.70;;;8.10;99.90;;;;;;5072155;28;20170;-72
2024/04/02 03:26:34;;;;;;;1.50;1.00;;;8.10;99.90;;;;;;5072141;28;20235;-72
2024/04/02 03:29:00;;;;;;;1.30;1.20;;;8.20;99.90;;;;;;5053952;28;20653;-72
2024/04/02 03:31:25;;;;;;;2.90;1.10;;;8.20;99.90;;;;;;5072152;28;20173;-72
2024/04/02 03:33:50;;;;;;;1.73;0.80;;;8.20;99.90;;;;;;5072050;28;20170;-72
2024/04/02 03:36:16;;;;;;;2.40;1.33;;;8.30;99.90;;;;;;5072138;28;20669;-72
2024/04/02 03:38:41;;;;;;;1.30;1.03;;;8.40;99.90;;;;;;5071752;28;20171;-72
2024/04/02 03:41:09;;;;;;;1.97;0.97;;;8.40;99.90;;;;;;5072222;28;20193;-72
2024/04/02 03:43:35;;;;;;;0.93;0.83;;;8.50;99.90;;;;;;5071963;28;20166;-72
2024/04/02 03:46:07;;;;;;;4.83;1.07;;;8.60;99.90;;;;;;5071967;28;20460;-72
2024/04/02 03:48:33;;;;;;;5.70;1.13;;;8.60;99.90;;;;;;5071527;28;20501;-72
2024/04/02 03:50:59;;;;;;;3.20;0.77;;;8.60;99.90;;;;;;5071942;28;20809;-72
2024/04/02 03:53:25;;;;;;;1.77;0.93;;;8.70;99.90;;;;;;5071960;28;20450;-72
2024/04/02 03:56:00;;;;;;;0.80;0.60;;;8.70;99.90;;;;;;5071604;28;20170;-72
2024/04/02 03:58:26;;;;;;;3.70;1.17;;;8.70;99.90;;;;;;5071535;28;20174;-72
2024/04/02 04:00:54;;;;;;;3.27;1.10;;;8.80;99.90;;;;;;5071979;28;20462;-72
2024/04/02 04:03:20;;;;;;;5.80;1.10;;;8.80;99.90;;;;;;5071573;28;20420;-72
2024/04/02 04:05:46;;;;;;;1.03;0.73;;;8.90;99.90;;;;;;5053678;28;20538;-72
2024/04/02 04:08:11;;;;;;;0.80;0.70;;;9.00;99.90;;;;;;5075921;28;20488;-72
2024/04/02 04:10:37;;;;;;;0.90;0.73;;;9.00;99.90;;;;;;5060199;28;20280;-72
2024/04/02 04:13:03;;;;;;;5.00;1.13;;;9.10;99.90;;;;;;5060399;28;20173;-72
2024/04/02 04:15:29;;;;;;;0.97;0.87;;;9.10;99.90;;;;;;5078315;28;20400;-72
2024/04/02 04:17:54;;;;;;;1.10;0.80;;;9.10;99.90;;;;;;5060002;28;20816;-72
2024/04/02 04:20:20;;;;;;;0.80;0.70;;;9.20;99.90;;;;;;5060321;28;20570;-72
2024/04/02 04:22:45;;;;;;;1.67;1.10;;;9.20;99.90;;;;;;5078432;28;20263;-72
2024/04/02 04:25:12;;;;;;;1.50;0.93;;;9.20;99.90;;;;;;5078134;28;20323;-72
2024/04/02 04:27:37;;;;;;;5.03;1.00;;;9.30;99.90;;;;;;5078058;28;20158;-72
2024/04/02 04:30:05;;;;;;;1.70;1.00;;;9.40;99.90;;;;;;5078319;28;20478;-72
2024/04/02 04:32:31;;;;;;;1.50;0.90;;;9.40;99.90;;;;;;5078190;28;20190;-72
2024/04/02 04:34:57;;;;;;;0.90;0.77;;;9.40;99.90;;;;;;5060187;28;20452;-72
2024/04/02 04:37:23;;;;;;;2.00;0.80;;;9.50;99.90;;;;;;5077929;28;20724;-72
2024/04/02 04:39:48;;;;;;;0.90;0.67;;;9.40;99.90;;;;;;5077986;28;20523;-72
2024/04/02 04:42:14;;;;;;;1.53;0.93;;;9.40;99.90;;;;;;5078156;28;20204;-72
2024/04/02 04:44:43;;;;;;;1.73;0.97;;;9.30;99.90;;;;;;5077998;28;20201;-72
2024/04/02 04:47:10;;;;;;;3.43;0.80;;;9.30;99.90;;;;;;5078512;28;20166;-73
2024/04/02 04:49:35;;;;;;;3.33;1.13;;;9.30;99.90;;;;;;5078274;28;20428;-72
2024/04/02 04:52:01;;;;;;;1.33;0.80;;;9.30;99.90;;;;;;5078082;28;20415;-72
2024/04/02 04:54:26;;;;;;;0.90;0.70;;;9.30;99.90;;;;;;5077987;28;20170;-72
2024/04/02 04:56:52;;;;;;;1.13;0.67;;;9.20;99.90;;;;;;5060078;28;20174;-72
2024/04/02 04:59:17;;;;;;;1.73;1.13;;;9.20;99.90;;;;;;5077704;28;20233;-72
2024/04/02 05:01:44;;;;;;;1.00;0.80;;;9.10;99.90;;;;;;5077795;28;20186;-72
2024/04/02 05:04:09;;;;;;;2.13;1.00;;;9.10;99.90;;;;;;5077738;28;20598;-72
2024/04/02 05:06:38;;;;;;;2.60;1.00;;;9.10;99.90;;;;;;5077859;28;20439;-72
2024/04/02 05:09:04;;;;;;;2.50;1.07;;;9.10;99.90;;;;;;5078314;28;20664;-72
2024/04/02 05:11:30;;;;;;;1.27;1.00;;;9.10;99.90;;;;;;5077890;28;20408;-72
2024/04/02 05:13:57;;;;;;;2.43;1.20;;;9.10;99.90;;;;;;5078243;28;20270;-73
2024/04/02 05:16:23;;;;;;;2.07;1.00;;;9.20;99.90;;;;;;5077778;28;20186;-73
2024/04/02 05:18:49;;;;;;;3.70;1.17;;;9.20;99.90;;;;;;5075410;28;20513;-73
2024/04/02 05:21:14;;;;;;;1.67;1.20;;;9.20;99.90;;;;;;5074562;28;20170;-73
2024/04/02 05:23:40;;;;;;;1.63;0.80;;;9.20;99.90;;;;;;5074572;28;20276;-72
2024/04/02 05:26:05;;;;;;;0.87;0.80;;;9.30;99.90;;;;;;5074435;28;20285;-69
2024/04/02 05:28:31;;;;;;;2.07;0.90;;;9.30;99.90;;;;;;5074351;28;20245;-69
2024/04/02 05:30:57;;;;;;;1.90;1.07;;;9.30;99.90;;;;;;5074377;28;20213;-69
2024/04/02 05:33:23;;;;;;;1.97;1.13;;;9.40;99.90;;;;;;5074477;28;20165;-69
2024/04/02 05:35:49;;;;;;;1.73;0.90;;;9.50;99.90;;;;;;5074310;28;20785;-69
2024/04/02 05:38:14;;;;;;;4.10;1.00;;;9.50;99.90;;;;;;5056159;28;20914;-69
2024/04/02 05:40:40;;;;;;;1.67;1.20;;;9.70;99.90;;;;;;5074192;28;20691;-70
2024/04/02 05:43:05;;;;;;;8.27;2.97;;;9.70;99.90;;;;;;5056241;28;20653;-69
2024/04/02 05:45:31;;;;;;;3.07;1.00;;;9.80;99.90;;;;;;5056261;28;20229;-69
2024/04/02 05:47:56;;;;;;;1.87;1.10;;;9.80;99.90;;;;;;5073888;28;20591;-70
2024/04/02 05:50:22;;;;;;;2.47;1.23;;;9.90;99.90;;;;;;5074008;28;20189;-69
2024/04/02 05:52:47;;;;;;;1.93;1.07;;;9.90;99.90;;;;;;5073961;28;20174;-69
2024/04/02 05:55:13;;;;;;;1.43;0.93;;;10.00;99.90;;;;;;5074052;28;20212;-69
2024/04/02 05:57:39;;;;;;;4.53;1.10;;;10.10;99.90;;;;;;5073823;28;20166;-69
2024/04/02 06:00:10;;;;;;;1.00;0.90;;;10.20;99.90;;;;;;5074191;28;20724;-69
2024/04/02 06:02:36;;;;;;;1.83;1.00;;;10.30;99.90;;;;;;5073910;28;20841;-69
2024/04/02 06:05:02;;;;;;;1.70;1.00;;;10.30;99.90;;;;;;5073631;28;20436;-69
2024/04/02 06:07:27;;;;;;;13.17;4.93;;;10.30;99.90;;;;;;5073574;28;20159;-70
2024/04/02 06:09:53;;;;;;;5.60;1.73;;;10.20;99.90;;;;;;5073795;28;20185;-69
2024/04/02 06:12:18;;;;;;;3.00;1.10;;;10.20;99.90;;;;;;5073516;28;20180;-69
2024/04/02 06:14:44;;;;;;;2.80;0.80;;;10.30;99.90;;;;;;5073577;28;20189;-70
2024/04/02 06:17:10;;;;;;;9.33;1.20;;;10.30;99.90;;;;;;5073225;28;20178;-69
2024/04/02 06:19:35;;;;;;;3.10;1.33;;;10.40;99.90;;;;;;5073391;28;20194;-69
2024/04/02 06:22:01;;;;;;;1.10;0.77;;;10.40;99.90;;;;;;5073473;28;20641;-70
2024/04/02 06:24:27;;;;;;;7.63;1.47;;;10.60;99.90;;;;;;5073377;28;20204;-70
2024/04/02 06:26:52;;;;;;;2.40;1.30;;;10.70;99.90;;;;;;5055540;28;20209;-70
2024/04/02 06:29:18;;;;;;;4.60;1.40;;;11.00;99.90;;;;;;5072906;28;20432;-70
2024/04/02 06:31:44;;;;;;;1.73;1.20;;;11.10;99.90;;;;;;5055617;28;20675;-70
2024/04/02 06:34:10;;;;;;;4.43;1.73;;;11.20;99.90;;;;;;5073220;28;20916;-68
2024/04/02 06:36:36;;;;;;;8.80;1.90;;;11.20;99.90;;;;;;5073220;28;20401;-69
2024/04/02 06:39:02;;;;;;;2.97;1.60;;;11.10;99.90;;;;;;5073047;28;20543;-69
2024/04/02 06:41:28;;;;;;;2.40;1.27;;;11.10;99.90;;;;;;5073400;28;20549;-70
2024/04/02 06:43:54;;;;;;;7.40;1.50;;;11.60;99.90;;;;;;5073265;28;20426;-70
2024/04/02 06:46:19;;;;;;;2.20;1.40;;;12.40;99.90;;;;;;5073194;28;20201;-70
2024/04/02 06:48:45;;;;;;;4.10;1.30;;;13.30;99.90;;;;;;5072716;28;20680;-70
2024/04/02 06:51:13;;;;;;;2.27;1.10;;;14.30;99.90;;;;;;5073123;28;20606;-70
2024/04/02 06:53:39;;;;;;;3.80;1.10;;;15.20;99.90;;;;;;5072886;28;20167;-70
2024/04/02 06:56:06;;;;;;;2.10;1.00;;;15.70;99.90;;;;;;5073072;28;20411;-70
2024/04/02 06:58:32;;;;;;;3.00;1.57;;;15.70;99.90;;;;;;5072476;28;20903;-69
2024/04/02 07:00:57;;;;;;;2.70;1.30;;;16.00;99.90;;;;;;5072256;28;20439;-70
2024/04/02 07:03:23;;;;;;;3.40;1.47;;;16.40;99.90;;;;;;5072973;28;20174;-70
2024/04/02 07:05:51;;;;;;;1.23;0.97;;;16.60;99.90;;;;;;5072637;28;20633;-70
2024/04/02 07:08:17;;;;;;;3.00;1.17;;;17.40;99.90;;;;;;5072677;28;20401;-70
2024/04/02 07:10:45;;;;;;;1.83;0.97;;;18.30;95.40;;;;;;5072600;28;20427;-71
2024/04/02 07:13:14;;;;;;;2.90;1.30;;;19.30;91.90;;;;;;5072794;28;20408;-70
2024/04/02 07:15:41;;;;;;;3.97;2.20;;;19.70;77.60;;;;;;5054581;28;20420;-69
2024/04/02 07:18:07;;;;;;;1.47;1.10;;;20.20;77.60;;;;;;5072313;28;20409;-71
2024/04/02 07:20:32;;;;;;;3.37;1.20;;;20.90;72.20;;;;;;5072628;28;20946;-71
2024/04/02 07:22:59;;;;;;;1.20;0.80;;;21.40;60.80;;;;;;5072416;28;20389;-70
2024/04/02 07:25:25;;;;;;;2.20;1.33;;;20.40;56.20;;;;;;5072454;28;20193;-70
2024/04/02 07:27:50;;;;;;;2.37;1.20;;;19.40;56.70;;;;;;5072052;28;20400;-69
2024/04/02 07:30:16;;;;;;;6.27;2.80;;;18.10;58.90;;;;;;5072220;28;20429;-70
2024/04/02 07:32:42;;;;;;;4.07;1.83;;;17.40;62.40;;;;;;5072220;28;20177;-69
2024/04/02 07:35:07;;;;;;;4.93;1.30;;;17.20;66.50;;;;;;5072155;28;20166;-69
2024/04/02 07:37:33;;;;;;;5.37;1.20;;;17.20;70.80;;;;;;5072063;28;20630;-69
2024/04/02 07:39:58;;;;;;;2.77;1.47;;;16.70;68.30;;;;;;5054368;28;20198;-70
2024/04/02 07:42:24;;;;;;;2.53;1.10;;;16.50;73.50;;;;;;5071644;28;20202;-69
2024/04/02 07:44:50;;;;;;;4.53;1.30;;;16.20;72.20;;;;;;5054274;28;20692;-70
2024/04/02 07:47:15;;;;;;;4.00;1.70;;;16.30;74.50;;;;;;5054087;28;20417;-70
2024/04/02 07:49:41;;;;;;;3.20;1.20;;;16.30;75.30;;;;;;5071999;28;20183;-69
2024/04/02 07:52:06;;;;;;;2.63;1.20;;;16.10;77.50;;;;;;5072128;28;20166;-70
2024/04/02 07:54:32;;;;;;;2.80;1.20;;;16.10;77.90;;;;;;5071896;28;20170;-70
2024/04/02 07:56:58;;;;;;;4.33;1.90;;;16.00;80.20;;;;;;5071923;28;20170;-70
2024/04/02 07:59:23;;;;;;;4.00;1.40;;;15.40;80.20;;;;;;5071589;28;20190;-70
2024/04/02 08:01:49;;;;;;;2.97;1.43;;;15.20;83.30;;;;;;5071853;28;20202;-70
2024/04/02 08:04:15;;;;;;;4.17;1.27;;;14.50;85.70;;;;;;5053977;28;20664;-69
2024/04/02 08:06:42;;;;;;;4.67;1.00;;;14.10;90.50;;;;;;5072165;28;20400;-68
2024/04/02 08:09:08;;;;;;;5.10;1.23;;;14.00;94.90;;;;;;5071459;28;20423;-69
2024/04/02 08:11:34;;;;;;;3.43;1.03;;;13.90;97.10;;;;;;5071891;28;20495;-70
2024/04/02 08:13:59;;;;;;;5.77;1.47;;;13.80;99.60;;;;;;5072034;28;20492;-70
2024/04/02 08:16:25;;;;;;;6.20;1.33;;;13.70;99.90;;;;;;5054376;28;20201;-70
2024/04/02 08:18:50;;;;;;;3.20;1.30;;;13.80;99.90;;;;;;5071991;28;20239;-70
2024/04/02 08:21:16;;;;;;;2.90;1.47;;;14.00;99.90;;;;;;5071933;28;20248;-69
2024/04/02 08:23:42;;;;;;;1.97;1.17;;;14.00;99.90;;;;;;5071953;28;20159;-69
2024/04/02 08:26:07;;;;;;;2.73;0.90;;;14.20;99.90;;;;;;5071742;28;20194;-70
2024/04/02 08:28:33;;;;;;;2.60;1.37;;;14.20;99.90;;;;;;5071557;28;20169;-69
2024/04/02 08:30:58;;;;;;;3.63;1.20;;;14.40;99.90;;;;;;5071418;28;20166;-69
2024/04/02 08:33:25;;;;;;;2.50;0.80;;;14.80;99.90;;;;;;5071750;28;20521;-69
2024/04/02 08:35:51;;;;;;;1.40;1.20;;;15.00;99.90;;;;;;5071776;28;20174;-69
2024/04/02 08:38:17;;;;;;;1.20;1.10;;;15.10;98.90;;;;;;5071577;28;20431;-69
2024/04/02 08:40:56;;;;;;;6.80;1.30;;;15.10;96.80;;;;;;5071739;28;20475;-69
2024/04/02 08:43:23;;;;;;;7.43;1.20;;;15.00;96.50;;;;;;5071777;28;20177;-69
2024/04/02 08:45:48;;;;;;;3.60;1.40;;;15.10;97.70;;;;;;5071007;28;20491;-69
2024/04/02 08:48:17;;;;;;;2.97;1.00;;;15.00;96.80;;;;;;5071000;28;20404;-70
2024/04/02 08:50:43;;;;;;;3.60;1.50;;;15.00;97.80;;;;;;5071767;28;20197;-69
2024/04/02 08:53:08;;;;;;;6.50;1.57;;;15.10;98.70;;;;;;5062531;28;20416;-68
2024/04/02 08:55:35;;;;;;;1.80;1.33;;;15.80;98.90;;;;;;5072400;28;20209;-68
2024/04/02 08:58:05;;;;;;;3.63;1.53;;;16.20;94.60;;;;;;5074401;28;20211;-67
2024/04/02 09:00:31;;;;;;;2.27;1.10;;;16.70;92.20;;;;;;5074575;28;20432;-71
2024/04/02 09:02:56;;;;;;;2.60;1.10;;;17.20;90.50;;;;;;5074902;28;20473;-69
2024/04/02 09:05:22;;;;;;;4.50;1.90;;;17.20;85.20;;;;;;5074671;28;20227;-69
2024/04/02 09:07:48;;;;;;;4.53;1.30;;;16.70;82.10;;;;;;5074498;28;20181;-69
2024/04/02 09:10:14;;;;;;;1.50;0.90;;;16.50;85.40;;;;;;5074745;28;20197;-69
2024/04/02 09:12:40;;;;;;;2.70;1.23;;;16.50;84.20;;;;;;5074603;28;20436;-68
2024/04/02 09:15:07;;;;;;;3.00;1.17;;;16.80;85.40;;;;;;5074698;28;20408;-68
2024/04/02 09:17:35;;;;;;;4.93;1.07;;;16.90;83.30;;;;;;5072042;28;20962;-70
2024/04/02 09:20:02;;;;;;;4.93;1.20;;;17.60;83.40;;;;;;5046940;28;20428;-68
2024/04/02 09:22:27;;;;;;;1.37;0.80;;;18.10;79.20;;;;;;5074455;28;20420;-68
2024/04/02 09:24:53;;;;;;;1.40;1.10;;;17.90;69.60;;;;;;5074395;28;20955;-69
2024/04/02 09:27:20;;;;;;;1.47;0.90;;;17.60;68.70;;;;;;5074242;28;20634;-69
2024/04/02 09:29:46;;;;;;;3.40;1.13;;;17.50;71.70;;;;;;5074539;28;20674;-68
2024/04/02 09:32:16;;;;;;;1.20;1.10;;;17.50;71.60;;;;;;5074616;28;20436;-68
2024/04/02 09:34:43;;;;;;;1.33;0.90;;;17.40;72.30;;;;;;5074479;28;20404;-68
2024/04/02 09:37:20;;;;;;;1.50;0.90;;;17.60;72.90;;;;;;5074319;28;20428;-68
2024/04/02 09:39:48;;;;;;;2.37;1.23;;;17.90;69.20;;;;;;5074351;28;20808;-68
2024/04/02 09:42:16;;;;;;;1.00;0.70;;;18.00;69.40;;;;;;5074263;28;20397;-69
2024/04/02 09:44:44;;;;;;;2.07;1.20;;;17.80;65.00;;;;;;5074190;28;20958;-69
2024/04/02 09:47:12;;;;;;;0.83;0.60;;;17.60;63.00;;;;;;5056358;28;20420;-69
2024/04/02 09:49:38;;;;;;;1.97;0.90;;;17.20;63.50;;;;;;5071078;28;20487;-68
2024/04/02 09:52:04;;;;;;;1.47;1.37;;;17.20;66.50;;;;;;5073952;28;20419;-69
2024/04/02 09:54:34;;;;;;;1.90;0.83;;;16.50;67.30;;;;;;5074137;28;20503;-70
2024/04/02 09:57:01;;;;;;;1.40;0.80;;;16.00;71.10;;;;;;5074179;28;20892;-70
2024/04/02 09:59:26;;;;;;;2.03;1.00;;;15.50;72.80;;;;;;5073711;28;20916;-70
2024/04/02 10:01:53;;;;;;;1.67;0.70;;;15.40;75.50;;;;;;5074837;28;20427;-70
2024/04/02 10:04:22;;;;;;;1.17;0.80;;;15.20;78.90;;;;;;5073563;28;20628;-69
2024/04/02 10:06:50;;;;;;;1.50;1.07;;;14.90;82.00;;;;;;5069288;28;20421;-70
2024/04/02 10:09:16;;;;;;;1.67;1.00;;;14.90;87.20;;;;;;5073170;28;20432;-69
2024/04/02 10:11:47;;;;;;;3.80;1.30;;;15.00;90.40;;;;;;5073485;28;20469;-69
2024/04/02 10:14:17;;;;;;;1.37;1.10;;;14.90;89.20;;;;;;5075595;28;20412;-69
2024/04/02 10:16:49;;;;;;;2.13;1.03;;;15.00;91.70;;;;;;5062720;28;20926;-69
2024/04/02 10:19:40;;;;;;;5.50;1.13;;;14.90;91.80;;;;;;5065609;28;20444;-69
2024/04/02 10:22:05;;;;;;;1.10;1.00;;;15.30;94.20;;;;;;5072906;28;20405;-69
2024/04/02 10:24:30;;;;;;;2.50;1.00;;;15.60;92.30;;;;;;5073391;28;20416;-71
2024/04/02 10:27:03;;;;;;;1.43;0.77;;;15.90;91.00;;;;;;5073334;28;20280;-70
2024/04/02 10:29:31;;;;;;;4.27;0.97;;;16.00;91.00;;;;;;5072083;28;20669;-69
2024/04/02 10:31:57;;;;;;;3.67;1.40;;;16.20;90.60;;;;;;5072191;28;20401;-70
2024/04/02 10:34:24;;;;;;;1.50;0.97;;;16.20;87.60;;;;;;5073284;28;20436;-69
2024/04/02 10:36:51;;;;;;;4.07;1.40;;;16.10;87.30;;;;;;5069509;28;20416;-69
2024/04/02 10:39:16;;;;;;;1.20;0.87;;;16.40;89.00;;;;;;5064681;28;20432;-69
2024/04/02 10:41:44;;;;;;;3.80;1.00;;;16.40;86.50;;;;;;5072890;28;20416;-69
2024/04/02 10:44:11;;;;;;;2.50;1.20;;;16.20;86.30;;;;;;5064911;28;20548;-70
2024/04/02 10:46:38;;;;;;;4.60;1.20;;;16.00;86.60;;;;;;5072680;28;20460;-70
2024/04/02 10:49:04;;;;;;;1.10;0.90;;;16.10;87.70;;;;;;5065720;28;20449;-70
2024/04/02 10:51:31;;;;;;;4.87;1.50;;;16.20;86.80;;;;;;5068020;28;20417;-70
2024/04/02 10:53:58;;;;;;;3.27;1.30;;;16.40;84.80;;;;;;5072729;28;20182;-70
2024/04/02 10:56:24;;;;;;;2.30;0.93;;;16.60;84.40;;;;;;5054605;28;20420;-71
2024/04/02 10:58:51;;;;;;;1.40;0.70;;;17.00;83.80;;;;;;5072060;28;20493;-69
2024/04/02 11:01:18;;;;;;;1.00;0.80;;;17.10;80.20;;;;;;5072447;28;20428;-70
2024/04/02 11:03:45;;;;;;;1.83;0.90;;;17.10;79.50;;;;;;5072466;28;20496;-70
2024/04/02 11:06:10;;;;;;;1.87;0.87;;;16.60;78.40;;;;;;5072368;28;20456;-69
2024/04/02 11:08:38;;;;;;;2.40;0.83;;;16.20;81.40;;;;;;5072123;28;20911;-70
2024/04/02 11:11:04;;;;;;;1.87;1.00;;;15.80;82.70;;;;;;5068105;28;20174;-70
2024/04/02 11:13:30;;;;;;;8.00;1.03;;;15.50;85.40;;;;;;5061600;28;20923;-69
2024/04/02 11:15:57;;;;;;;3.07;0.90;;;15.20;89.50;;;;;;5072175;28;20408;-69
2024/04/02 11:18:26;;;;;;;2.30;0.73;;;15.30;92.20;;;;;;5071237;28;20204;-70
2024/04/02 11:20:56;;;;;;;2.20;0.90;;;15.30;92.90;;;;;;5066712;28;20433;-69
2024/04/02 11:26:14;;;;;;;2.00;1.30;;;15.00;94.30;;;;;;5059293;28;20459;-69
2024/04/02 11:28:39;;;;;;;7.13;0.93;;;14.70;95.30;;;;;;5071796;28;20958;-69
2024/04/02 11:31:05;;;;;;;2.10;1.20;;;14.90;97.80;;;;;;5071968;28;20424;-71
2024/04/02 11:33:30;;;;;;;1.87;0.90;;;14.90;99.90;;;;;;5071588;28;20173;-70
2024/04/02 11:35:56;;;;;;;2.00;1.03;;;14.50;99.90;;;;;;5063513;28;20186;-70
2024/04/02 11:38:21;;;;;;;1.73;0.90;;;14.40;99.90;;;;;;5058269;28;20591;-69
2024/04/02 11:40:47;;;;;;;1.60;0.93;;;14.50;99.90;;;;;;5068521;28;20198;-69
2024/04/02 11:43:13;;;;;;;2.07;0.80;;;14.70;99.90;;;;;;5063628;28;20186;-71
2024/04/02 11:45:38;;;;;;;2.40;0.90;;;14.80;99.90;;;;;;5071848;28;20194;-70
2024/04/02 11:48:04;;;;;;;1.70;1.30;;;14.60;99.90;;;;;;5071589;28;20190;-69
2024/04/02 11:50:30;;;;;;;3.47;0.90;;;14.50;99.90;;;;;;5057486;28;20197;-71
2024/04/02 11:52:55;;;;;;;1.77;0.90;;;14.50;99.90;;;;;;5071636;28;20168;-70
2024/04/02 11:55:21;;;;;;;1.77;0.73;;;14.60;99.90;;;;;;5072017;28;20170;-70
2024/04/02 12:00:30;;;;;;;1.50;0.97;;;14.80;99.90;;;;;;5072131;28;20201;-69
2024/04/02 12:02:56;;;;;;;3.53;1.10;;;15.00;99.90;;;;;;5072027;28;20392;-70
2024/04/02 12:05:21;;;;;;;1.60;1.50;;;15.20;99.90;;;;;;5071708;28;20552;-69
2024/04/02 12:07:47;;;;;;;1.63;1.37;;;15.30;99.90;;;;;;5071493;28;20177;-70
2024/04/02 12:10:13;;;;;;;1.70;0.90;;;15.20;99.90;;;;;;5071884;28;20186;-69
2024/04/02 12:12:38;;;;;;;3.63;1.00;;;15.10;99.90;;;;;;5071738;28;20657;-68
2024/04/02 12:15:08;;;;;;;1.33;0.77;;;15.00;99.90;;;;;;5071732;28;20171;-69
2024/04/02 12:17:33;;;;;;;3.13;1.00;;;15.00;99.90;;;;;;5071485;28;20220;-70
2024/04/02 12:19:59;;;;;;;2.67;1.00;;;14.90;99.90;;;;;;5071599;28;20428;-69
2024/04/02 12:22:26;;;;;;;5.17;1.10;;;15.00;99.90;;;;;;5071637;28;20634;-69
2024/04/02 12:24:52;;;;;;;4.57;0.80;;;14.90;99.90;;;;;;5071582;28;20448;-69
2024/04/02 12:27:22;;;;;;;6.07;1.50;;;14.80;99.90;;;;;;5072804;28;20432;-70
2024/04/02 12:29:53;;;;;;;8.43;1.23;;;14.70;99.90;;;;;;5075819;28;20974;-70
2024/04/02 12:32:19;;;;;;;1.87;1.20;;;14.40;99.90;;;;;;5075626;28;20479;-69
2024/04/02 12:34:47;;;;;;;1.43;0.90;;;14.40;99.90;;;;;;5075443;28;20408;-69
2024/04/02 12:37:14;;;;;;;2.10;1.07;;;14.40;99.90;;;;;;5075259;28;20404;-69
2024/04/02 12:39:41;;;;;;;3.03;1.47;;;14.40;99.90;;;;;;5075299;28;20435;-69
2024/04/02 12:42:08;;;;;;;1.50;1.00;;;14.60;99.90;;;;;;5075350;28;20933;-69
2024/04/02 12:44:34;;;;;;;2.53;1.20;;;14.80;99.90;;;;;;5075384;28;20400;-69
2024/04/02 12:47:00;;;;;;;2.13;0.80;;;15.00;99.90;;;;;;5075278;28;20400;-69
2024/04/02 12:49:25;;;;;;;3.03;1.20;;;15.10;99.90;;;;;;5074989;28;20186;-69
2024/04/02 12:51:51;;;;;;;4.40;0.90;;;15.10;99.90;;;;;;5075120;28;20404;-70